Corpus Christi, TX

12:42 AM CST on January 29, 2015 (GMT -0600)
Shannon Estates | Change Station
CLOSE
Current Station
Personal Weather Station
Location: Corpus Christi, TX
Elevation: 36 ft
Nearby Weather Stations

Elev 36 ft 27.70 °N, 97.40 °W | Updated 4 minutes ago

Clear
Clear
58.8 °F
Feels Like 58.8 °F
N
2.2
Wind Variable Wind from SE

Today
High -- | Low -- °F
--% Chance of Precip.
Yesterday
High -- | Low -- °F
Precip. -- in
7:17 AM 6:07 PM
Waxing Gibbous, 71% visible
Pressure 30.16 in
Visibility 10.0 miles
Clouds Clear
Dew Point 58 °F
Humidity 97%
Rainfall 0.00 in
Snow Depth Not available.
UV 0 out of 12
Pollen 8.00 out of 12
Air Quality Not available.
Flu Activity Not available.
METAR KNGP 290556Z AUTO 17005KT 10SM CLR 16/15 A3016 RMK AO2 SLP212 T01560150 10183 20156 402280072 53005

More Conditions Fewer Conditions

Pressure 30.16 in
Visibility 10.0 miles
Clouds Clear
Dew Point 58 °F
Humidity 97%
Rainfall 0.00 in
Snow Depth Not available.
UV 0 out of 12
Pollen 8.00 out of 12
Air Quality Not available.
Flu Activity Not available.
METAR KNGP 290556Z AUTO 17005KT 10SM CLR 16/15 A3016 RMK AO2 SLP212 T01560150 10183 20156 402280072 53005

More Conditions Fewer Conditions

Nowcast | as of 11:57 PM CST on January 28, 2015

Areas of fog are expected to develop across the coastal plains through 3 am. Visibilities will fall at times to less than 1 mile...with isolated visibilities of 1/2 mile or less. A dense fog advisory may be required for portions of the coastal plains before sunrise Thursday morning. In areas of reduced visibility...slow down and use low beam headlights.

×

10-Day Weather Forecast

Almanac

Astronomy

Jan. 29, 2015 Rise Set
Actual Time
Civil Twilight
Nautical Twilight
Astronomical Twilight
Moon
Length of Visible Light
Length of Day
Tomorrow will be .
, % of the Moon is Illuminated

Today's Extremes

State Highs State Lows

Community

WunderPhotos

Upload Photos

1,791,387 photos uploaded!

WunderBlogs® & News

Nearby

Air Quality

  Air Quality AQ Index Pollutant
Not available.

Snow Depth

Station Depth Elevation

Earthquake Activity

City Distance Mag. Time & Date
Minimum magnitude displayed is 2.5.

Coastal Water Temperatures

Place Temperature

Nearby Weather Stations